createdAt,value
2023-07-03T00:00:12.468Z,17.61
2023-07-03T00:02:40.556Z,17.36
2023-07-03T00:05:10.910Z,17.13
2023-07-03T00:07:38.709Z,17.76
2023-07-03T00:10:07.853Z,17.80
2023-07-03T00:12:38.632Z,17.87
2023-07-03T00:15:07.548Z,17.80
2023-07-03T00:17:38.714Z,17.85
2023-07-03T00:20:12.443Z,17.84
2023-07-03T00:22:40.132Z,17.77
2023-07-03T00:25:08.867Z,17.12
2023-07-03T00:27:36.566Z,17.56
2023-07-03T00:30:04.703Z,17.43
2023-07-03T00:32:32.254Z,17.57
2023-07-03T00:34:59.845Z,17.66
2023-07-03T00:37:29.100Z,17.67
2023-07-03T00:39:56.676Z,17.55
2023-07-03T00:42:25.539Z,17.64
2023-07-03T00:44:53.225Z,17.66
2023-07-03T00:47:21.576Z,17.49
2023-07-03T00:49:50.215Z,17.62
2023-07-03T00:52:17.974Z,17.69
2023-07-03T00:54:46.845Z,17.36
2023-07-03T00:57:15.898Z,17.23
2023-07-03T00:59:45.995Z,17.46
2023-07-03T01:02:17.914Z,17.36
2023-07-03T01:04:51.277Z,17.57
2023-07-03T01:07:26.062Z,17.61
2023-07-03T01:09:57.074Z,17.33
2023-07-03T01:12:27.949Z,17.53
2023-07-03T01:14:59.022Z,17.44
2023-07-03T01:17:29.281Z,17.57
2023-07-03T01:19:59.167Z,17.55
2023-07-03T01:22:33.034Z,17.66
2023-07-03T01:25:05.895Z,17.48
2023-07-03T01:27:36.844Z,17.01
2023-07-03T01:30:08.660Z,17.54
2023-07-03T01:32:38.324Z,17.52
2023-07-03T01:35:09.681Z,17.51
2023-07-03T01:37:42.391Z,17.25
2023-07-03T01:40:17.061Z,17.49
2023-07-03T01:42:46.452Z,17.42
2023-07-03T01:45:14.509Z,17.36
2023-07-03T01:47:41.954Z,17.46
2023-07-03T01:50:14.492Z,17.51
2023-07-03T01:52:45.580Z,17.49
2023-07-03T01:55:19.923Z,17.47
2023-07-03T01:57:54.398Z,17.31
2023-07-03T02:00:27.298Z,17.44
2023-07-03T02:02:58.215Z,17.46
2023-07-03T02:05:29.912Z,17.52
2023-07-03T02:08:02.285Z,17.29
2023-07-03T02:10:31.262Z,17.15
2023-07-03T02:12:58.809Z,17.45
2023-07-03T02:15:26.398Z,17.29
2023-07-03T02:17:55.463Z,17.19
2023-07-03T02:20:23.119Z,17.30
2023-07-03T02:22:50.719Z,17.33
2023-07-03T02:25:18.232Z,17.19
2023-07-03T02:27:47.452Z,17.16
2023-07-03T02:30:18.090Z,17.14
2023-07-03T02:32:45.706Z,17.24
2023-07-03T02:35:15.425Z,17.13
2023-07-03T02:37:42.979Z,17.13
2023-07-03T02:40:14.527Z,17.07
2023-07-03T02:42:42.189Z,17.12
2023-07-03T02:45:11.501Z,17.16
2023-07-03T02:47:40.165Z,16.75
2023-07-03T02:50:09.402Z,16.94
2023-07-03T02:52:37.195Z,16.94
2023-07-03T02:55:05.128Z,17.07
2023-07-03T02:57:32.623Z,17.09
2023-07-03T03:00:00.163Z,16.99
2023-07-03T03:02:29.213Z,16.88
2023-07-03T03:04:57.017Z,17.09
2023-07-03T03:07:24.749Z,17.04
2023-07-03T03:09:52.361Z,17.03
2023-07-03T03:12:19.844Z,17.05
2023-07-03T03:14:47.436Z,17.15
2023-07-03T03:17:15.511Z,17.10
2023-07-03T03:19:44.501Z,17.13
2023-07-03T03:22:12.041Z,16.94
2023-07-03T03:24:39.629Z,17.02
2023-07-03T03:27:07.891Z,16.94
2023-07-03T03:29:35.572Z,16.94
2023-07-03T03:32:03.260Z,16.97
2023-07-03T03:34:33.646Z,17.00
2023-07-03T03:37:03.163Z,16.89
2023-07-03T03:39:30.842Z,17.02
2023-07-03T03:41:58.546Z,16.89
2023-07-03T03:44:26.119Z,17.05
2023-07-03T03:46:54.142Z,16.99
2023-07-03T03:49:24.778Z,16.90
2023-07-03T03:51:52.346Z,16.91
2023-07-03T03:54:21.890Z,16.96
2023-07-03T03:56:51.649Z,17.01
2023-07-03T03:59:19.152Z,16.94
2023-07-03T04:01:46.741Z,16.89
2023-07-03T04:04:14.975Z,16.92
2023-07-03T04:06:42.816Z,16.99
2023-07-03T04:09:10.742Z,16.90
2023-07-03T04:11:39.695Z,17.00
2023-07-03T04:14:10.366Z,16.96
2023-07-03T04:16:38.825Z,17.03
2023-07-03T04:19:06.519Z,16.86
2023-07-03T04:21:34.061Z,17.04
2023-07-03T04:24:01.622Z,16.93
2023-07-03T04:26:29.192Z,17.08
2023-07-03T04:28:58.110Z,17.05
2023-07-03T04:31:25.897Z,17.03
2023-07-03T04:33:53.406Z,16.95
2023-07-03T04:36:23.397Z,17.05
2023-07-03T04:38:58.039Z,17.05
2023-07-03T04:41:25.676Z,17.11
2023-07-03T04:43:58.034Z,17.01
2023-07-03T04:46:28.005Z,16.91
2023-07-03T04:49:00.514Z,17.03
2023-07-03T04:51:31.534Z,17.03
2023-07-03T04:53:59.760Z,17.00
2023-07-03T04:56:27.182Z,17.01
2023-07-03T04:58:54.859Z,17.09
2023-07-03T05:01:23.269Z,17.07
2023-07-03T05:03:52.395Z,17.13
2023-07-03T05:06:20.095Z,17.13
2023-07-03T05:08:48.091Z,16.92
2023-07-03T05:11:15.912Z,17.00
2023-07-03T05:13:43.558Z,17.09
2023-07-03T05:16:11.099Z,17.15
2023-07-03T05:18:38.731Z,17.15
2023-07-03T05:21:07.603Z,17.14
2023-07-03T05:23:35.171Z,17.16
2023-07-03T05:26:02.669Z,17.09
2023-07-03T05:28:31.458Z,17.08
2023-07-03T05:31:00.187Z,17.27
2023-07-03T05:33:29.194Z,17.05
2023-07-03T05:35:57.169Z,17.11
2023-07-03T05:38:26.084Z,16.91
2023-07-03T05:41:00.114Z,17.20
2023-07-03T05:43:28.036Z,17.31
2023-07-03T05:45:55.578Z,17.28
2023-07-03T05:48:23.249Z,17.35
2023-07-03T05:50:50.810Z,17.37
2023-07-03T05:53:18.882Z,17.42
2023-07-03T05:55:56.545Z,17.34
2023-07-03T05:58:24.817Z,17.31
2023-07-03T06:00:52.974Z,17.31
2023-07-03T06:03:21.437Z,17.33
2023-07-03T06:05:49.854Z,17.29
2023-07-03T06:08:17.630Z,17.45
2023-07-03T06:10:46.379Z,17.47
2023-07-03T06:13:17.615Z,17.53
2023-07-03T06:15:45.193Z,17.50
2023-07-03T06:18:12.761Z,17.58
2023-07-03T06:20:40.331Z,17.57
2023-07-03T06:23:08.310Z,17.66
2023-07-03T06:25:36.093Z,17.78
2023-07-03T06:28:03.996Z,17.80
2023-07-03T06:30:32.819Z,17.93
2023-07-03T06:33:00.377Z,17.96
2023-07-03T06:35:28.008Z,18.02
2023-07-03T06:37:57.080Z,18.00
2023-07-03T06:40:24.566Z,18.12
2023-07-03T06:42:53.413Z,18.18
2023-07-03T06:45:21.075Z,18.29
2023-07-03T06:47:50.063Z,18.22
2023-07-03T06:50:19.197Z,18.20
2023-07-03T06:52:48.796Z,18.29
2023-07-03T06:55:16.404Z,18.33
2023-07-03T06:57:44.007Z,18.35
2023-07-03T07:00:14.001Z,18.36
2023-07-03T07:02:41.691Z,18.41
2023-07-03T07:05:11.392Z,18.51
2023-07-03T07:07:38.985Z,18.48
2023-07-03T07:10:07.632Z,18.69
2023-07-03T07:12:35.143Z,18.80
2023-07-03T07:15:02.706Z,18.79
2023-07-03T07:17:46.239Z,18.84
2023-07-03T07:20:19.024Z,18.68
2023-07-03T07:22:46.529Z,18.93
2023-07-03T07:25:14.117Z,19.04
2023-07-03T07:27:41.708Z,19.02
2023-07-03T07:30:10.327Z,18.93
2023-07-03T07:32:37.899Z,19.32
2023-07-03T07:35:09.331Z,19.33
2023-07-03T07:37:38.272Z,19.34
2023-07-03T07:40:07.152Z,19.26
2023-07-03T07:42:34.711Z,19.52
2023-07-03T07:45:02.306Z,19.48
2023-07-03T07:47:30.258Z,19.46
2023-07-03T07:49:59.221Z,19.35
2023-07-03T07:52:26.923Z,19.46
2023-07-03T07:54:57.135Z,19.76
2023-07-03T07:57:24.976Z,19.55
2023-07-03T07:59:52.485Z,19.51
2023-07-03T08:02:20.180Z,19.71
2023-07-03T08:04:47.898Z,19.80
2023-07-03T08:07:18.245Z,19.76
2023-07-03T08:09:45.799Z,19.77
2023-07-03T08:12:14.789Z,20.01
2023-07-03T08:14:42.298Z,20.02
2023-07-03T08:17:10.157Z,20.09
2023-07-03T08:19:37.629Z,19.91
2023-07-03T08:22:05.578Z,19.75
2023-07-03T08:24:33.113Z,19.66
2023-07-03T08:27:00.786Z,19.63
2023-07-03T08:29:29.732Z,19.64
2023-07-03T08:31:57.234Z,19.88
2023-07-03T08:34:24.825Z,19.99
2023-07-03T08:39:23.868Z,19.66
2023-07-03T08:41:57.177Z,19.87
2023-07-03T08:44:24.792Z,20.05
2023-07-03T08:47:06.490Z,20.04
2023-07-03T08:49:38.983Z,20.34
2023-07-03T08:52:08.383Z,20.39
2023-07-03T08:54:39.053Z,20.78
2023-07-03T08:57:08.037Z,20.60
2023-07-03T08:59:36.143Z,20.92
2023-07-03T09:02:13.828Z,20.56
2023-07-03T09:04:54.807Z,20.26
2023-07-03T09:07:33.205Z,20.17
2023-07-03T09:10:08.500Z,20.10
2023-07-03T09:12:41.321Z,20.07
2023-07-03T09:15:14.901Z,19.99
2023-07-03T09:17:45.046Z,19.75
2023-07-03T09:20:15.847Z,19.98
2023-07-03T09:22:53.244Z,20.21
2023-07-03T09:25:26.171Z,20.30
2023-07-03T09:27:56.854Z,20.52
2023-07-03T09:30:24.733Z,20.33
2023-07-03T09:32:53.643Z,20.15
2023-07-03T09:35:22.740Z,19.99
2023-07-03T09:37:52.773Z,19.97
2023-07-03T09:40:25.821Z,19.93
2023-07-03T09:42:54.132Z,19.93
2023-07-03T09:45:25.513Z,20.13
2023-07-03T09:47:59.631Z,20.68
2023-07-03T09:50:32.421Z,21.10
2023-07-03T09:55:31.676Z,20.58
2023-07-03T09:57:59.294Z,20.89
2023-07-03T10:00:28.178Z,20.97
2023-07-03T10:08:11.225Z,21.08
2023-07-03T10:13:15.276Z,20.32
2023-07-03T10:15:44.150Z,20.28
2023-07-03T10:18:21.468Z,20.29
2023-07-03T10:20:52.349Z,20.00
2023-07-03T10:23:24.300Z,20.60
2023-07-03T10:25:55.815Z,21.35
2023-07-03T10:28:28.773Z,21.58
2023-07-03T10:31:01.920Z,21.32
2023-07-03T10:33:36.341Z,21.15
2023-07-03T10:36:07.722Z,21.55
2023-07-03T10:38:43.480Z,22.29
2023-07-03T10:41:18.067Z,21.39
2023-07-03T10:43:50.653Z,21.26
2023-07-03T10:46:26.243Z,21.50
2023-07-03T10:48:57.776Z,21.27
2023-07-03T10:51:35.868Z,20.93
2023-07-03T10:54:09.103Z,21.56
2023-07-03T10:56:43.646Z,21.71
2023-07-03T10:59:20.915Z,21.98
2023-07-03T11:01:58.546Z,22.26
2023-07-03T11:04:36.941Z,22.53
2023-07-03T11:07:08.970Z,22.92
2023-07-03T11:09:43.300Z,22.32
2023-07-03T11:12:17.949Z,22.06
2023-07-03T11:14:55.747Z,21.87
2023-07-03T11:17:33.707Z,21.86
2023-07-03T11:20:09.809Z,22.78
2023-07-03T11:22:45.897Z,22.78
2023-07-03T11:25:23.670Z,21.99
2023-07-03T11:28:00.441Z,22.04
2023-07-03T11:30:32.235Z,22.44
2023-07-03T11:33:01.416Z,22.08
2023-07-03T11:40:40.340Z,22.04
2023-07-03T11:43:33.283Z,22.77
2023-07-03T11:46:11.458Z,22.05
2023-07-03T11:48:51.447Z,22.06
2023-07-03T11:51:32.768Z,22.66
2023-07-03T11:54:00.737Z,22.84
2023-07-03T11:56:50.122Z,23.01
2023-07-03T11:59:43.486Z,23.22
2023-07-03T12:02:48.028Z,22.91
2023-07-03T12:05:51.358Z,22.48
2023-07-03T12:08:42.820Z,23.16
2023-07-03T12:11:11.916Z,23.67
2023-07-03T12:13:52.041Z,23.20
2023-07-03T12:16:22.672Z,23.53
2023-07-03T12:18:58.782Z,23.23
2023-07-03T12:21:27.298Z,23.71
2023-07-03T12:23:56.183Z,23.86
2023-07-03T12:26:24.844Z,23.57
2023-07-03T12:29:04.220Z,22.85
2023-07-03T12:31:32.139Z,22.74
2023-07-03T12:34:02.112Z,23.06
2023-07-03T12:36:34.242Z,22.65
2023-07-03T12:39:15.239Z,23.53
2023-07-03T12:41:44.294Z,22.81
2023-07-03T12:44:15.690Z,22.77
2023-07-03T12:46:46.342Z,22.51
2023-07-03T12:49:16.644Z,22.84
2023-07-03T12:51:51.856Z,22.41
2023-07-03T12:54:22.700Z,22.26
2023-07-03T12:56:52.961Z,22.61
2023-07-03T12:59:23.918Z,22.39
2023-07-03T13:01:54.853Z,22.62
2023-07-03T13:04:30.356Z,22.92
2023-07-03T13:06:59.080Z,22.99
2023-07-03T13:09:30.149Z,23.40
2023-07-03T13:11:57.872Z,22.89
2023-07-03T13:14:27.821Z,23.44
2023-07-03T13:16:57.377Z,23.14
2023-07-03T13:19:31.473Z,23.06
2023-07-03T13:22:00.697Z,22.42
2023-07-03T13:24:30.842Z,22.81
2023-07-03T13:26:59.838Z,23.25
2023-07-03T13:29:30.425Z,23.17
2023-07-03T13:32:14.316Z,23.35
2023-07-03T13:34:55.411Z,23.72
2023-07-03T13:37:24.582Z,22.78
2023-07-03T13:40:01.048Z,22.88
2023-07-03T13:42:30.373Z,22.91
2023-07-03T13:44:58.526Z,22.92
2023-07-03T13:47:29.032Z,23.18
2023-07-03T13:49:57.128Z,23.30
2023-07-03T13:52:24.883Z,23.34
2023-07-03T13:54:53.760Z,23.07
2023-07-03T13:57:21.430Z,23.30
2023-07-03T13:59:48.911Z,23.83
2023-07-03T14:02:16.459Z,24.13
2023-07-03T14:04:44.747Z,23.68
2023-07-03T14:07:12.437Z,22.61
2023-07-03T14:09:39.940Z,22.52
2023-07-03T14:12:09.510Z,23.06
2023-07-03T14:14:37.076Z,23.25
2023-07-03T14:17:04.911Z,22.59
2023-07-03T14:19:32.475Z,22.42
2023-07-03T14:22:00.280Z,22.78
2023-07-03T14:24:28.001Z,22.40
2023-07-03T14:26:55.513Z,22.91
2023-07-03T14:29:25.436Z,23.16
2023-07-03T14:31:53.026Z,22.86
2023-07-03T14:34:20.743Z,23.27
2023-07-03T14:36:48.853Z,23.31
2023-07-03T14:39:16.349Z,22.24
2023-07-03T14:41:44.363Z,22.05
2023-07-03T14:44:14.162Z,22.22
2023-07-03T14:46:43.133Z,22.31
2023-07-03T14:49:10.764Z,22.54
2023-07-03T14:51:38.538Z,22.06
2023-07-03T14:54:06.065Z,22.13
2023-07-03T14:56:33.547Z,22.88
2023-07-03T14:59:01.205Z,23.07
2023-07-03T15:01:29.083Z,22.43
2023-07-03T15:03:58.102Z,22.31
2023-07-03T15:06:25.752Z,22.64
2023-07-03T15:08:53.820Z,22.99
2023-07-03T15:11:21.503Z,23.10
2023-07-03T15:13:49.140Z,22.46
2023-07-03T15:16:16.815Z,22.33
2023-07-03T15:18:44.361Z,22.23
2023-07-03T15:21:13.404Z,22.10
2023-07-03T15:23:40.906Z,22.16
2023-07-03T15:26:09.286Z,22.66
2023-07-03T15:28:36.854Z,22.33
2023-07-03T15:31:04.926Z,22.00
2023-07-03T15:33:32.507Z,21.76
2023-07-03T15:36:01.264Z,21.86
2023-07-03T15:38:30.231Z,21.85
2023-07-03T15:40:59.299Z,21.81
2023-07-03T15:43:28.037Z,21.62
2023-07-03T15:46:04.306Z,21.52
2023-07-03T15:48:32.201Z,21.78
2023-07-03T15:51:00.153Z,21.69
2023-07-03T15:53:28.913Z,21.90
2023-07-03T15:56:03.458Z,21.77
2023-07-03T15:58:37.376Z,22.07
2023-07-03T16:01:08.818Z,22.23
2023-07-03T16:03:37.498Z,22.10
2023-07-03T16:06:06.835Z,22.23
2023-07-03T16:08:36.593Z,22.36
2023-07-03T16:11:07.691Z,22.46
2023-07-03T16:13:37.152Z,22.54
2023-07-03T16:16:05.365Z,22.01
2023-07-03T16:18:33.223Z,22.07
2023-07-03T16:21:01.824Z,22.47
2023-07-03T16:23:31.476Z,22.44
2023-07-03T16:26:02.619Z,21.96
2023-07-03T16:28:35.245Z,22.27
2023-07-03T16:31:04.644Z,22.57
2023-07-03T16:33:33.728Z,22.78
2023-07-03T16:36:02.838Z,22.27
2023-07-03T16:38:30.906Z,22.10
2023-07-03T16:41:01.271Z,21.99
2023-07-03T16:43:33.846Z,22.06
2023-07-03T16:46:03.247Z,21.83
2023-07-03T16:48:34.646Z,21.89
2023-07-03T16:51:03.837Z,21.90
2023-07-03T16:53:32.928Z,21.78
2023-07-03T16:56:03.589Z,22.19
2023-07-03T16:58:33.647Z,22.01
2023-07-03T17:01:04.253Z,22.38
2023-07-03T17:03:32.286Z,22.02
2023-07-03T17:06:01.042Z,22.13
2023-07-03T17:08:30.328Z,22.27
2023-07-03T17:10:59.152Z,22.31
2023-07-03T17:13:26.726Z,21.93
2023-07-03T17:15:56.034Z,22.00
2023-07-03T17:18:24.259Z,22.22
2023-07-03T17:20:51.934Z,22.18
2023-07-03T17:23:19.892Z,21.85
2023-07-03T17:25:47.409Z,21.85
2023-07-03T17:28:15.249Z,22.12
2023-07-03T17:30:42.673Z,21.85
2023-07-03T17:33:11.674Z,21.81
2023-07-03T17:35:40.267Z,21.51
2023-07-03T17:38:10.791Z,21.95
2023-07-03T17:40:41.933Z,21.64
2023-07-03T17:43:09.498Z,21.74
2023-07-03T17:45:40.710Z,21.77
2023-07-03T17:48:08.308Z,22.07
2023-07-03T17:50:37.297Z,21.66
2023-07-03T17:53:04.850Z,21.85
2023-07-03T17:55:32.534Z,21.84
2023-07-03T17:58:00.843Z,21.71
2023-07-03T18:00:28.570Z,21.66
2023-07-03T18:02:58.518Z,21.59
2023-07-03T18:05:27.858Z,21.45
2023-07-03T18:07:56.724Z,21.77
2023-07-03T18:10:24.764Z,21.49
2023-07-03T18:12:54.856Z,21.36
2023-07-03T18:15:24.083Z,21.54
2023-07-03T18:17:55.375Z,21.27
2023-07-03T18:20:22.749Z,21.16
2023-07-03T18:22:50.342Z,20.98
2023-07-03T18:25:19.255Z,21.16
2023-07-03T18:27:46.833Z,21.19
2023-07-03T18:30:14.610Z,21.00
2023-07-03T18:32:48.097Z,21.32
2023-07-03T18:35:15.792Z,21.28
2023-07-03T18:37:43.405Z,20.69
2023-07-03T18:40:11.654Z,20.77
2023-07-03T18:42:40.545Z,21.04
2023-07-03T18:45:08.936Z,20.73
2023-07-03T18:47:36.548Z,20.92
2023-07-03T18:50:04.584Z,20.98
2023-07-03T18:52:32.102Z,20.97
2023-07-03T18:54:59.669Z,21.08
2023-07-03T18:57:27.248Z,20.51
2023-07-03T18:59:56.124Z,20.73
2023-07-03T19:02:23.737Z,20.45
2023-07-03T19:04:53.176Z,20.51
2023-07-03T19:07:20.795Z,20.96
2023-07-03T19:09:48.325Z,20.40
2023-07-03T19:12:18.166Z,20.68
2023-07-03T19:14:45.726Z,21.05
2023-07-03T19:17:14.805Z,21.05
2023-07-03T19:19:42.552Z,20.93
2023-07-03T19:22:10.216Z,21.11
2023-07-03T19:24:38.166Z,20.68
2023-07-03T19:27:06.041Z,20.63
2023-07-03T19:29:33.598Z,20.94
2023-07-03T19:32:01.345Z,21.07
2023-07-03T19:34:32.228Z,20.95
2023-07-03T19:37:00.525Z,20.94
2023-07-03T19:39:29.333Z,20.96
2023-07-03T19:41:56.889Z,20.82
2023-07-03T19:44:24.597Z,20.70
2023-07-03T19:46:52.180Z,20.65
2023-07-03T19:49:19.746Z,20.42
2023-07-03T19:51:49.027Z,20.65
2023-07-03T19:54:16.868Z,20.84
2023-07-03T19:56:44.362Z,20.55
2023-07-03T19:59:14.009Z,20.76
2023-07-03T20:01:41.593Z,20.76
2023-07-03T20:04:09.358Z,20.55
2023-07-03T20:06:36.896Z,20.70
2023-07-03T20:09:08.586Z,20.71
2023-07-03T20:11:36.094Z,20.89
2023-07-03T20:14:03.691Z,20.74
2023-07-03T20:16:32.032Z,20.63
2023-07-03T20:18:59.680Z,20.68
2023-07-03T20:21:27.610Z,20.72
2023-07-03T20:23:57.728Z,20.28
2023-07-03T20:26:28.053Z,20.80
2023-07-03T20:28:56.002Z,20.88
2023-07-03T20:31:23.837Z,20.84
2023-07-03T20:33:51.673Z,20.83
2023-07-03T20:36:20.610Z,20.84
2023-07-03T20:38:48.099Z,20.70
2023-07-03T20:41:17.008Z,20.80
2023-07-03T20:43:46.724Z,20.75
2023-07-03T20:46:17.353Z,20.81
2023-07-03T20:48:45.434Z,20.84
2023-07-03T20:51:22.078Z,20.80
2023-07-03T20:54:00.200Z,20.69
2023-07-03T20:56:32.191Z,20.64
2023-07-03T20:59:03.064Z,20.63
2023-07-03T21:01:32.663Z,20.74
2023-07-03T21:04:02.274Z,20.66
2023-07-03T21:06:32.436Z,20.66
2023-07-03T21:09:00.937Z,20.40
2023-07-03T21:11:32.401Z,20.53
2023-07-03T21:14:05.247Z,20.35
2023-07-03T21:16:34.256Z,20.39
2023-07-03T21:22:00.750Z,19.21
2023-07-03T21:24:28.391Z,19.76
2023-07-03T21:26:55.900Z,19.26
2023-07-03T21:29:25.091Z,19.96
2023-07-03T21:31:52.791Z,19.97
2023-07-03T21:34:20.647Z,19.63
2023-07-03T21:36:48.552Z,19.88
2023-07-03T21:39:15.980Z,19.79
2023-07-03T21:41:43.571Z,19.76
2023-07-03T21:44:13.354Z,19.71
2023-07-03T21:46:43.041Z,19.82
2023-07-03T21:49:13.516Z,19.74
2023-07-03T21:51:41.220Z,20.11
2023-07-03T21:54:08.919Z,19.77
2023-07-03T21:56:39.246Z,20.03
2023-07-03T21:59:06.953Z,19.99
2023-07-03T22:01:37.513Z,19.59
2023-07-03T22:04:08.341Z,19.97
2023-07-03T22:06:35.972Z,20.00
2023-07-03T22:09:04.032Z,19.99
2023-07-03T22:11:32.338Z,19.95
2023-07-03T22:14:00.278Z,19.91
2023-07-03T22:16:27.894Z,19.54
2023-07-03T22:18:55.429Z,19.69
2023-07-03T22:21:25.067Z,19.63
2023-07-03T22:23:52.686Z,19.44
2023-07-03T22:26:21.766Z,19.70
2023-07-03T22:28:49.320Z,19.67
2023-07-03T22:31:17.063Z,19.41
2023-07-03T22:33:44.700Z,19.60
2023-07-03T22:36:14.020Z,19.61
2023-07-03T22:38:42.957Z,19.58
2023-07-03T22:41:11.236Z,19.56
2023-07-03T22:43:38.762Z,19.70
2023-07-03T22:46:07.442Z,19.74
2023-07-03T22:48:35.785Z,19.83
2023-07-03T22:51:03.334Z,19.62
2023-07-03T22:53:31.012Z,19.72
2023-07-03T22:56:03.170Z,19.86
2023-07-03T22:58:30.694Z,19.77
2023-07-03T23:00:58.227Z,19.73
2023-07-03T23:03:25.829Z,19.82
2023-07-03T23:05:53.934Z,19.07
2023-07-03T23:08:24.988Z,19.66
2023-07-03T23:10:53.525Z,19.78
2023-07-03T23:13:24.733Z,19.71
2023-07-03T23:15:56.800Z,19.83
2023-07-03T23:18:24.960Z,19.80
2023-07-03T23:20:56.886Z,19.78
2023-07-03T23:23:27.760Z,19.75
2023-07-03T23:25:57.118Z,19.52
2023-07-03T23:28:32.165Z,19.46
2023-07-03T23:31:01.907Z,19.17
2023-07-03T23:33:30.359Z,19.55
2023-07-03T23:35:59.224Z,19.53
2023-07-03T23:38:26.984Z,19.33
2023-07-03T23:40:55.380Z,19.55
2023-07-03T23:43:23.980Z,19.43
2023-07-03T23:45:53.350Z,19.47
2023-07-03T23:48:21.043Z,19.47
2023-07-03T23:50:56.360Z,19.28
2023-07-03T23:53:25.637Z,19.46
2023-07-03T23:55:54.517Z,19.38
2023-07-03T23:58:22.993Z,19.31
